^^
MeteoGriva-Weather Station Historical Data
Daily Summary for July 11, 2020 Units:  Both    English   Metric
Daily Weekly Monthly Yearly Custom
  High: Low: Average:
Temperature: 86 °F /  30 °C 66.9 °F /  19.4 °C 76.3 °F /  24.6 °C
Dew Point: 74.5 °F /  23.6 °C 62.1 °F /  16.7 °C 68.5 °F /  20.3 °C
Humidity: 93.3% 62% 78%
Wind Speed: 7.1mph /  11.4km/h - 2mph /  3.2km/h
Wind Gust: 17.4mph /  28km/h - -
Wind- - South
Pressure: 29.9 in /  1013.5 hPa 29.8 in /  1008.1 hPa -
Precipitation: 0 in /  0.0 mm    
Historical Graphs
 
 
Tabular Data for July 11, 2020
Time Temperature Dew Point Pressure Wind Wind Speed Wind Gust Humidity Rainfall Rate (Hourly) solar
00:04 71.6 °F /  22 °C 64.8 °F /  18.2 °C 29.9in /  1012.5hPa South 3.1mph /  5km/h 7.6mph /  12.2km/h 78.9% 0in /  0.0mm 0 W/m2
00:09 71.6 °F /  22 °C 64.2 °F /  17.9 °C 29.9in /  1012.5hPa South 3mph /  4.8km/h 10.1mph /  16.3km/h 77.6% 0in /  0.0mm 0 W/m2
00:14 71.8 °F /  22.1 °C 63.9 °F /  17.7 °C 29.9in /  1012.9hPa South 3.7mph /  6km/h 10.1mph /  16.3km/h 76% 0in /  0.0mm 0 W/m2
00:19 71.8 °F /  22.1 °C 63 °F /  17.2 °C 29.9in /  1012.9hPa SSW 3.2mph /  5.1km/h 10.1mph /  16.3km/h 74% 0in /  0.0mm 0 W/m2
00:24 72 °F /  22.2 °C 63 °F /  17.2 °C 29.9in /  1012.9hPa South 3.2mph /  5.1km/h 7.6mph /  12.2km/h 73.9% 0in /  0.0mm 0 W/m2
00:29 72 °F /  22.2 °C 63 °F /  17.2 °C 29.9in /  1012.5hPa South 4.5mph /  7.3km/h 10.1mph /  16.3km/h 73.1% 0in /  0.0mm 0 W/m2
00:34 72.5 °F /  22.5 °C 63.5 °F /  17.5 °C 29.9in /  1012.9hPa South 2.6mph /  4.2km/h 7.6mph /  12.2km/h 73.4% 0in /  0.0mm 0 W/m2
00:39 72.5 °F /  22.5 °C 63.5 °F /  17.5 °C 29.9in /  1012.9hPa South 3.1mph /  5km/h 7.6mph /  12.2km/h 73.4% 0in /  0.0mm 0 W/m2
00:44 72.5 °F /  22.5 °C 63.3 °F /  17.4 °C 29.9in /  1012.9hPa South 1.7mph /  2.8km/h 7.6mph /  12.2km/h 73% 0in /  0.0mm 0 W/m2
00:49 72.5 °F /  22.5 °C 63 °F /  17.2 °C 29.9in /  1012.9hPa SSW 3.1mph /  5km/h 10.1mph /  16.3km/h 72% 0in /  0.0mm 0 W/m2
00:54 72.7 °F /  22.6 °C 63.1 °F /  17.3 °C 29.9in /  1012.9hPa South 3.5mph /  5.7km/h 10.1mph /  16.3km/h 72% 0in /  0.0mm 0 W/m2
00:59 72.7 °F /  22.6 °C 63.1 °F /  17.3 °C 29.9in /  1012.9hPa South 3.4mph /  5.4km/h 7.6mph /  12.2km/h 72% 0in /  0.0mm 0 W/m2
01:04 72.7 °F /  22.6 °C 63.1 °F /  17.3 °C 29.9in /  1012.9hPa South 3mph /  4.9km/h 7.6mph /  12.2km/h 72.1% 0in /  0.0mm 0 W/m2
01:09 72.7 °F /  22.6 °C 63.1 °F /  17.3 °C 29.9in /  1012.9hPa South 2.6mph /  4.2km/h 10.1mph /  16.3km/h 72% 0in /  0.0mm 0 W/m2
01:14 72.5 °F /  22.5 °C 63 °F /  17.2 °C 29.9in /  1012.9hPa South 2.5mph /  4.1km/h 7.6mph /  12.2km/h 72% 0in /  0.0mm 0 W/m2
01:19 72.5 °F /  22.5 °C 63 °F /  17.2 °C 29.9in /  1012.9hPa South 2.9mph /  4.7km/h 10.1mph /  16.3km/h 72% 0in /  0.0mm 0 W/m2
01:24 72.5 °F /  22.5 °C 63 °F /  17.2 °C 29.9in /  1012.9hPa South 3.2mph /  5.2km/h 10.1mph /  16.3km/h 72% 0in /  0.0mm 0 W/m2
01:29 72.5 °F /  22.5 °C 63 °F /  17.2 °C 29.9in /  1012.9hPa South 2.5mph /  4km/h 7.6mph /  12.2km/h 72% 0in /  0.0mm 0 W/m2
01:34 72.7 °F /  22.6 °C 63.3 °F /  17.4 °C 29.9in /  1012.9hPa South 3mph /  4.9km/h 7.6mph /  12.2km/h 72.6% 0in /  0.0mm 0 W/m2
01:39 72.7 °F /  22.6 °C 63.1 °F /  17.3 °C 29.9in /  1012.9hPa South 2.7mph /  4.4km/h 10.1mph /  16.3km/h 72% 0in /  0.0mm 0 W/m2
01:44 72.7 °F /  22.6 °C 63.1 °F /  17.3 °C 29.9in /  1012.9hPa South 3.7mph /  5.9km/h 10.1mph /  16.3km/h 72% 0in /  0.0mm 0 W/m2
01:49 72.7 °F /  22.6 °C 63 °F /  17.2 °C 29.9in /  1012.9hPa South 4.1mph /  6.6km/h 10.1mph /  16.3km/h 71.3% 0in /  0.0mm 0 W/m2
01:54 72.9 °F /  22.7 °C 63 °F /  17.2 °C 29.9in /  1012.5hPa SSE 2.1mph /  3.3km/h 7.6mph /  12.2km/h 71% 0in /  0.0mm 0 W/m2
01:59 72.9 °F /  22.7 °C 63 °F /  17.2 °C 29.9in /  1012.5hPa South 3mph /  4.9km/h 7.6mph /  12.2km/h 70.9% 0in /  0.0mm 0 W/m2
02:04 72.9 °F /  22.7 °C 62.4 °F /  16.9 °C 29.9in /  1012.5hPa SSW 3.5mph /  5.6km/h 7.6mph /  12.2km/h 70% 0in /  0.0mm 0 W/m2
02:09 72.9 °F /  22.7 °C 62.1 °F /  16.7 °C 29.9in /  1012.9hPa South 2.1mph /  3.3km/h 7.6mph /  12.2km/h 69% 0in /  0.0mm 0 W/m2
02:14 73.8 °F /  23.2 °C 62.6 °F /  17 °C 29.9in /  1012.9hPa South 1.9mph /  3km/h 4.9mph /  7.9km/h 68.4% 0in /  0.0mm 0 W/m2
02:19 73.8 °F /  23.2 °C 62.4 °F /  16.9 °C 29.9in /  1012.9hPa SSW 1.6mph /  2.5km/h 4.9mph /  7.9km/h 67.7% 0in /  0.0mm 0 W/m2
02:24 73.8 °F /  23.2 °C 62.1 °F /  16.7 °C 29.9in /  1012.9hPa South 1.2mph /  2km/h 4.9mph /  7.9km/h 67% 0in /  0.0mm 0 W/m2
02:29 73.9 °F /  23.3 °C 62.2 °F /  16.8 °C 29.9in /  1012.9hPa Calm   4.9mph /  7.9km/h 67.1% 0in /  0.0mm 0 W/m2
02:34 74.1 °F /  23.4 °C 62.8 °F /  17.1 °C 29.9in /  1012.9hPa Calm   2.5mph /  4km/h 67.7% 0in /  0.0mm 0 W/m2
02:39 74.1 °F /  23.4 °C 63 °F /  17.2 °C 29.9in /  1012.9hPa Calm     68% 0in /  0.0mm 0 W/m2
02:44 74.1 °F /  23.4 °C 63 °F /  17.2 °C 29.9in /  1012.9hPa Calm   2.5mph /  4km/h 68% 0in /  0.0mm 0 W/m2
02:49 73.9 °F /  23.3 °C 63 °F /  17.2 °C 29.9in /  1012.9hPa Calm     68.6% 0in /  0.0mm 0 W/m2
02:54 73.2 °F /  22.9 °C 63 °F /  17.2 °C 29.9in /  1012.9hPa Calm     70.2% 0in /  0.0mm 0 W/m2
02:59 72.9 °F /  22.7 °C 63.5 °F /  17.5 °C 29.9in /  1012.9hPa Calm     72.8% 0in /  0.0mm 0 W/m2
03:04 72.5 °F /  22.5 °C 63.3 °F /  17.4 °C 29.9in /  1012.9hPa Calm     73% 0in /  0.0mm 0 W/m2
03:09 72.3 °F /  22.4 °C 63.1 °F /  17.3 °C 29.9in /  1012.9hPa Calm     73% 0in /  0.0mm 0 W/m2
03:14 71.4 °F /  21.9 °C 62.6 °F /  17 °C 29.9in /  1012.9hPa Calm   2.5mph /  4km/h 73.9% 0in /  0.0mm 0 W/m2
03:19 71.1 °F /  21.7 °C 66 °F /  18.9 °C 29.9in /  1012.9hPa Calm   4.9mph /  7.9km/h 84.4% 0in /  0.0mm 0 W/m2
03:24 70.5 °F /  21.4 °C 66.4 °F /  19.1 °C 29.9in /  1012.9hPa Calm     86.7% 0in /  0.0mm 0 W/m2
03:29 70 °F /  21.1 °C 66.4 °F /  19.1 °C 29.9in /  1012.9hPa Calm     88.6% 0in /  0.0mm 0 W/m2
03:34 68 °F /  20 °C 64.2 °F /  17.9 °C 29.9in /  1012.9hPa Calm     87.7% 0in /  0.0mm 0 W/m2
03:39 67.3 °F /  19.6 °C 63.3 °F /  17.4 °C 29.9in /  1012.9hPa Calm     86.8% 0in /  0.0mm 0 W/m2
03:44 67.3 °F /  19.6 °C 62.8 °F /  17.1 °C 29.9in /  1012.9hPa Calm     85.4% 0in /  0.0mm 0 W/m2
03:49 67.3 °F /  19.6 °C 63.1 °F /  17.3 °C 29.9in /  1012.9hPa Calm     86.3% 0in /  0.0mm 0 W/m2
03:54 67.6 °F /  19.8 °C 64.6 °F /  18.1 °C 29.9in /  1012.9hPa Calm     90% 0in /  0.0mm 0 W/m2
03:59 67.5 °F /  19.7 °C 65.1 °F /  18.4 °C 29.9in /  1012.9hPa Calm     92.1% 0in /  0.0mm 0 W/m2
04:04 67.5 °F /  19.7 °C 65.1 °F /  18.4 °C 29.9in /  1012.9hPa Calm     92.2% 0in /  0.0mm 0 W/m2
04:09 67.5 °F /  19.7 °C 64.6 °F /  18.1 °C 29.9in /  1012.9hPa Calm     90.7% 0in /  0.0mm 0 W/m2
04:14 67.5 °F /  19.7 °C 64 °F /  17.8 °C 29.9in /  1012.9hPa Calm     89% 0in /  0.0mm 0 W/m2
04:19 67.3 °F /  19.6 °C 63.9 °F /  17.7 °C 29.9in /  1012.9hPa Calm     89% 0in /  0.0mm 0 W/m2
04:24 67.3 °F /  19.6 °C 64 °F /  17.8 °C 29.9in /  1012.9hPa Calm     89.7% 0in /  0.0mm 0 W/m2
04:29 67.3 °F /  19.6 °C 64.2 °F /  17.9 °C 29.9in /  1012.9hPa Calm     89.8% 0in /  0.0mm 0 W/m2
04:34 67.5 °F /  19.7 °C 64.4 °F /  18 °C 29.9in /  1012.9hPa Calm     90% 0in /  0.0mm 0 W/m2
04:39 67.5 °F /  19.7 °C 64.2 °F /  17.9 °C 29.9in /  1012.9hPa Calm     89.5% 0in /  0.0mm 0 W/m2
04:44 67.3 °F /  19.6 °C 64.2 °F /  17.9 °C 29.9in /  1012.9hPa Calm   2.5mph /  4km/h 90% 0in /  0.0mm 0 W/m2
04:49 67.3 °F /  19.6 °C 64.6 °F /  18.1 °C 29.9in /  1012.9hPa Calm     90.9% 0in /  0.0mm 0 W/m2
04:54 67.1 °F /  19.5 °C 64.2 °F /  17.9 °C 29.9in /  1012.9hPa Calm     90.3% 0in /  0.0mm 0 W/m2
04:59 66.9 °F /  19.4 °C 62.8 °F /  17.1 °C 29.9in /  1012.9hPa South 0.3mph /  0.5km/h 2.5mph /  4km/h 86.4% 0in /  0.0mm 0 W/m2
05:04 67.1 °F /  19.5 °C 62.2 °F /  16.8 °C 29.9in /  1012.9hPa South 0.2mph /  0.3km/h 4.9mph /  7.9km/h 84.7% 0in /  0.0mm 0 W/m2
05:09 67.5 °F /  19.7 °C 62.4 °F /  16.9 °C 29.9in /  1012.9hPa SSW 0.2mph /  0.3km/h 4.9mph /  7.9km/h 84% 0in /  0.0mm 0 W/m2
05:14 68.4 °F /  20.2 °C 63.3 °F /  17.4 °C 29.9in /  1012.9hPa SSW 0.8mph /  1.3km/h 4.9mph /  7.9km/h 84% 0in /  0.0mm 0 W/m2
05:19 68.7 °F /  20.4 °C 63.9 °F /  17.7 °C 29.9in /  1012.9hPa SW 0.2mph /  0.3km/h 4.9mph /  7.9km/h 84.4% 0in /  0.0mm 0 W/m2
05:24 68.7 °F /  20.4 °C 63.7 °F /  17.6 °C 29.9in /  1012.9hPa South 0.6mph /  0.9km/h 4.9mph /  7.9km/h 84% 0in /  0.0mm 0 W/m2
05:29 68.7 °F /  20.4 °C 64 °F /  17.8 °C 29.9in /  1012.9hPa SSW 0.4mph /  0.7km/h 4.9mph /  7.9km/h 84.9% 0in /  0.0mm 0 W/m2
05:34 68.5 °F /  20.3 °C 63.9 °F /  17.7 °C 29.9in /  1012.9hPa SSW 0.2mph /  0.4km/h 4.9mph /  7.9km/h 85% 0in /  0.0mm 0 W/m2
05:39 68.4 °F /  20.2 °C 63.7 °F /  17.6 °C 29.9in /  1012.9hPa SSW 0.6mph /  1km/h 4.9mph /  7.9km/h 85% 0in /  0.0mm 0 W/m2
05:44 68.4 °F /  20.2 °C 63.7 °F /  17.6 °C 29.9in /  1012.9hPa Calm     85% 0in /  0.0mm 0 W/m2
05:49 68.2 °F /  20.1 °C 63.5 °F /  17.5 °C 29.9in /  1012.9hPa South 0.8mph /  1.3km/h 7.6mph /  12.2km/h 85% 0in /  0.0mm 0 W/m2
05:54 68.4 °F /  20.2 °C 63.7 °F /  17.6 °C 29.9in /  1012.5hPa South 2.2mph /  3.5km/h 7.6mph /  12.2km/h 85.4% 0in /  0.0mm 0 W/m2
05:59 68.4 °F /  20.2 °C 64 °F /  17.8 °C 29.9in /  1012.9hPa South 2.8mph /  4.5km/h 7.6mph /  12.2km/h 86.1% 0in /  0.0mm 0 W/m2
06:04 68.4 °F /  20.2 °C 64.4 °F /  18 °C 29.9in /  1012.5hPa South 3.2mph /  5.2km/h 7.6mph /  12.2km/h 87.2% 0in /  0.0mm 0 W/m2
06:09 68.4 °F /  20.2 °C 64.6 °F /  18.1 °C 29.9in /  1012.9hPa South 2.4mph /  3.9km/h 7.6mph /  12.2km/h 88% 0in /  0.0mm 3 W/m2
06:14 68.4 °F /  20.2 °C 64.6 °F /  18.1 °C 29.9in /  1012.9hPa South 0.9mph /  1.4km/h 4.9mph /  7.9km/h 88% 0in /  0.0mm 6 W/m2
06:19 68.4 °F /  20.2 °C 64.6 °F /  18.1 °C 29.9in /  1012.9hPa SSW 0.4mph /  0.6km/h 7.6mph /  12.2km/h 88% 0in /  0.0mm 13 W/m2
06:24 68.4 °F /  20.2 °C 64.6 °F /  18.1 °C 29.9in /  1012.9hPa South 2.4mph /  3.9km/h 7.6mph /  12.2km/h 88% 0in /  0.0mm 27 W/m2
06:29 68.4 °F /  20.2 °C 64.6 °F /  18.1 °C 29.9in /  1012.9hPa Calm   7.6mph /  12.2km/h 87.7% 0in /  0.0mm 42 W/m2
06:34 68.7 °F /  20.4 °C 64.6 °F /  18.1 °C 29.9in /  1012.9hPa SSE 0.3mph /  0.5km/h 4.9mph /  7.9km/h 87% 0in /  0.0mm 58 W/m2
06:39 69.1 °F /  20.6 °C 64.9 °F /  18.3 °C 29.9in /  1013.2hPa SSW 0.1mph /  0.2km/h 4.9mph /  7.9km/h 86.3% 0in /  0.0mm 77 W/m2
06:44 69.1 °F /  20.6 °C 64.8 °F /  18.2 °C 29.9in /  1013.2hPa Calm     86% 0in /  0.0mm 92 W/m2
06:49 69.3 °F /  20.7 °C 64.8 °F /  18.2 °C 29.9in /  1012.9hPa Calm     85.9% 0in /  0.0mm 109 W/m2
06:54 69.6 °F /  20.9 °C 64.9 °F /  18.3 °C 29.9in /  1012.9hPa Calm     85.2% 0in /  0.0mm 127 W/m2
06:59 70.2 °F /  21.2 °C 65.1 °F /  18.4 °C 29.9in /  1013.2hPa Calm     84% 0in /  0.0mm 145 W/m2
07:04 70.3 °F /  21.3 °C 65.3 °F /  18.5 °C 29.9in /  1012.9hPa Calm     83.9% 0in /  0.0mm 163 W/m2
07:09 70.5 °F /  21.4 °C 65.1 °F /  18.4 °C 29.9in /  1013.2hPa Calm     83.1% 0in /  0.0mm 176 W/m2
07:14 70.5 °F /  21.4 °C 65.3 °F /  18.5 °C 29.9in /  1013.2hPa Calm     83.3% 0in /  0.0mm 193 W/m2
07:19 70.5 °F /  21.4 °C 65.5 °F /  18.6 °C 29.9in /  1013.2hPa Calm     84.2% 0in /  0.0mm 206 W/m2
07:29 70.2 °F /  21.2 °C 65.5 °F /  18.6 °C 29.9in /  1013.2hPa NNE 0.2mph /  0.3km/h 2.5mph /  4km/h 84.9% 0in /  0.0mm 232 W/m2
07:34 70 °F /  21.1 °C 65.3 °F /  18.5 °C 29.9in /  1013.2hPa Calm   2.5mph /  4km/h 84.8% 0in /  0.0mm 245 W/m2
07:39 70 °F /  21.1 °C 65.5 °F /  18.6 °C 29.9in /  1013.2hPa Calm     85.3% 0in /  0.0mm 258 W/m2
07:44 70 °F /  21.1 °C 65.8 °F /  18.8 °C 29.9in /  1013.2hPa Calm     86.7% 0in /  0.0mm 267 W/m2
07:49 70 °F /  21.1 °C 65.5 °F /  18.6 °C 29.9in /  1013.5hPa Calm     85.4% 0in /  0.0mm 277 W/m2
07:54 70.9 °F /  21.6 °C 65.7 °F /  18.7 °C 29.9in /  1013.5hPa Calm     83.7% 0in /  0.0mm 288 W/m2
07:59 72.3 °F /  22.4 °C 66.6 °F /  19.2 °C 29.9in /  1013.5hPa Calm     81.9% 0in /  0.0mm 297 W/m2
08:09 73 °F /  22.8 °C 66.4 °F /  19.1 °C 29.9in /  1013.5hPa Calm     79.8% 0in /  0.0mm 314 W/m2
08:14 73.6 °F /  23.1 °C 67.8 °F /  19.9 °C 29.9in /  1013.5hPa SSW 1.1mph /  1.8km/h 4.9mph /  7.9km/h 82.1% 0in /  0.0mm 319 W/m2
08:19 74.7 °F /  23.7 °C 68.7 °F /  20.4 °C 29.9in /  1013.5hPa Calm   2.5mph /  4km/h 82% 0in /  0.0mm 326 W/m2
08:24 74.7 °F /  23.7 °C 68.5 °F /  20.3 °C 29.9in /  1013.5hPa SSE 2.4mph /  3.8km/h 10.1mph /  16.3km/h 82% 0in /  0.0mm 332 W/m2
08:29 74.5 °F /  23.6 °C 68.5 °F /  20.3 °C 29.9in /  1013.5hPa South 3mph /  4.8km/h 10.1mph /  16.3km/h 82.2% 0in /  0.0mm 337 W/m2
08:34 74.5 °F /  23.6 °C 68.7 °F /  20.4 °C 29.9in /  1013.5hPa South 4.7mph /  7.6km/h 10.1mph /  16.3km/h 82.8% 0in /  0.0mm 341 W/m2
08:39 74.3 °F /  23.5 °C 68.7 °F /  20.4 °C 29.9in /  1013.5hPa South 3.2mph /  5.2km/h 10.1mph /  16.3km/h 83% 0in /  0.0mm 348 W/m2
08:44 74.1 °F /  23.4 °C 68.7 °F /  20.4 °C 29.9in /  1013.5hPa SSE 3.6mph /  5.8km/h 10.1mph /  16.3km/h 83.6% 0in /  0.0mm 352 W/m2
08:49 74.3 °F /  23.5 °C 68.9 °F /  20.5 °C 29.9in /  1013.5hPa South 3.7mph /  6km/h 10.1mph /  16.3km/h 83.4% 0in /  0.0mm 357 W/m2
08:54 74.5 °F /  23.6 °C 68.9 °F /  20.5 °C 29.9in /  1013.5hPa SE 2.4mph /  3.8km/h 10.1mph /  16.3km/h 82.9% 0in /  0.0mm 362 W/m2
08:59 75.2 °F /  24 °C 69.6 °F /  20.9 °C 29.9in /  1013.5hPa South 2.6mph /  4.2km/h 7.6mph /  12.2km/h 82.9% 0in /  0.0mm 368 W/m2
09:04 75.2 °F /  24 °C 69.6 °F /  20.9 °C 29.9in /  1013.5hPa SE 1.6mph /  2.6km/h 7.6mph /  12.2km/h 83.1% 0in /  0.0mm 373 W/m2
09:09 75.4 °F /  24.1 °C 70 °F /  21.1 °C 29.9in /  1013.5hPa SE 3mph /  4.8km/h 7.6mph /  12.2km/h 83.7% 0in /  0.0mm 380 W/m2
09:14 75.4 °F /  24.1 °C 70 °F /  21.1 °C 29.9in /  1013.5hPa SSE 3.7mph /  6km/h 10.1mph /  16.3km/h 83.6% 0in /  0.0mm 385 W/m2
09:19 75.7 °F /  24.3 °C 70.2 °F /  21.2 °C 29.9in /  1013.5hPa South 3.3mph /  5.3km/h 7.6mph /  12.2km/h 82.8% 0in /  0.0mm 389 W/m2
09:24 75.7 °F /  24.3 °C 70.2 °F /  21.2 °C 29.9in /  1013.5hPa SSE 4.6mph /  7.4km/h 12.5mph /  20.1km/h 82.9% 0in /  0.0mm 392 W/m2
09:29 75.7 °F /  24.3 °C 70.3 °F /  21.3 °C 29.9in /  1013.5hPa South 2.3mph /  3.7km/h 12.5mph /  20.1km/h 83.3% 0in /  0.0mm 402 W/m2
09:34 75.9 °F /  24.4 °C 70.2 °F /  21.2 °C 29.9in /  1013.5hPa SSE 0.5mph /  0.8km/h 10.1mph /  16.3km/h 82.2% 0in /  0.0mm 414 W/m2
09:39 76.8 °F /  24.9 °C 70 °F /  21.1 °C 29.9in /  1013.5hPa SSE 2.2mph /  3.5km/h 7.6mph /  12.2km/h 79.7% 0in /  0.0mm 414 W/m2
09:44 76.8 °F /  24.9 °C 70 °F /  21.1 °C 29.9in /  1013.5hPa SSE 2.6mph /  4.2km/h 7.6mph /  12.2km/h 79.3% 0in /  0.0mm 415 W/m2
09:49 77 °F /  25 °C 70.5 °F /  21.4 °C 29.9in /  1013.2hPa SE 0.7mph /  1.2km/h 4.9mph /  7.9km/h 80.8% 0in /  0.0mm 428 W/m2
09:54 77 °F /  25 °C 70.5 °F /  21.4 °C 29.9in /  1013.2hPa SSE 2.1mph /  3.3km/h 4.9mph /  7.9km/h 80.6% 0in /  0.0mm 449 W/m2
09:59 77.7 °F /  25.4 °C 70.7 °F /  21.5 °C 29.9in /  1013.2hPa SSE 0.7mph /  1.2km/h 7.6mph /  12.2km/h 79% 0in /  0.0mm 444 W/m2
10:04 77.7 °F /  25.4 °C 71.1 °F /  21.7 °C 29.9in /  1013.2hPa SSE 2.3mph /  3.7km/h 4.9mph /  7.9km/h 79.8% 0in /  0.0mm 442 W/m2
10:09 77.7 °F /  25.4 °C 71.2 °F /  21.8 °C 29.9in /  1012.9hPa SSE 1.4mph /  2.3km/h 7.6mph /  12.2km/h 80.4% 0in /  0.0mm 446 W/m2
10:14 77.9 °F /  25.5 °C 71.2 °F /  21.8 °C 29.9in /  1013.2hPa SSE 1.5mph /  2.4km/h 7.6mph /  12.2km/h 79.9% 0in /  0.0mm 453 W/m2
10:19 78.4 °F /  25.8 °C 71.8 °F /  22.1 °C 29.9in /  1012.9hPa SSE 0.9mph /  1.4km/h 7.6mph /  12.2km/h 80% 0in /  0.0mm 461 W/m2
10:24 78.4 °F /  25.8 °C 71.8 °F /  22.1 °C 29.9in /  1012.9hPa SSE 1.2mph /  2km/h 4.9mph /  7.9km/h 80.2% 0in /  0.0mm 455 W/m2
10:29 78.3 °F /  25.7 °C 72.1 °F /  22.3 °C 29.9in /  1012.9hPa South 2.5mph /  4km/h 10.1mph /  16.3km/h 81.2% 0in /  0.0mm 467 W/m2
10:34 78.3 °F /  25.7 °C 71.8 °F /  22.1 °C 29.9in /  1012.9hPa SE 1.7mph /  2.7km/h 7.6mph /  12.2km/h 80.7% 0in /  0.0mm 467 W/m2
10:39 78.8 °F /  26 °C 72.1 °F /  22.3 °C 29.9in /  1012.9hPa SSE 2.8mph /  4.5km/h 7.6mph /  12.2km/h 80.2% 0in /  0.0mm 476 W/m2
10:44 78.6 °F /  25.9 °C 72.3 °F /  22.4 °C 29.9in /  1012.9hPa SSE 2.2mph /  3.5km/h 7.6mph /  12.2km/h 81.1% 0in /  0.0mm 483 W/m2
10:49 78.6 °F /  25.9 °C 71.8 °F /  22.1 °C 29.9in /  1012.9hPa South 3.6mph /  5.8km/h 10.1mph /  16.3km/h 79.6% 0in /  0.0mm 488 W/m2
10:54 78.8 °F /  26 °C 72 °F /  22.2 °C 29.9in /  1012.9hPa South 2.5mph /  4.1km/h 10.1mph /  16.3km/h 79.9% 0in /  0.0mm 486 W/m2
10:59 78.8 °F /  26 °C 72 °F /  22.2 °C 29.9in /  1012.9hPa SSE 2.4mph /  3.9km/h 10.1mph /  16.3km/h 79.8% 0in /  0.0mm 485 W/m2
11:04 78.8 °F /  26 °C 71.8 °F /  22.1 °C 29.9in /  1012.5hPa South 1.9mph /  3km/h 10.1mph /  16.3km/h 79.2% 0in /  0.0mm 489 W/m2
11:09 79 °F /  26.1 °C 72.1 °F /  22.3 °C 29.9in /  1012.9hPa SE 2.1mph /  3.4km/h 7.6mph /  12.2km/h 79.4% 0in /  0.0mm 494 W/m2
11:14 79.2 °F /  26.2 °C 72 °F /  22.2 °C 29.9in /  1012.9hPa SE 2.4mph /  3.9km/h 7.6mph /  12.2km/h 78.8% 0in /  0.0mm 495 W/m2
11:19 79.7 °F /  26.5 °C 72.1 °F /  22.3 °C 29.9in /  1012.5hPa SSE 3mph /  4.8km/h 7.6mph /  12.2km/h 78.2% 0in /  0.0mm 499 W/m2
11:24 79.7 °F /  26.5 °C 72.9 °F /  22.7 °C 29.9in /  1012.5hPa SSE 2.4mph /  3.9km/h 10.1mph /  16.3km/h 79.3% 0in /  0.0mm 500 W/m2
11:29 79.7 °F /  26.5 °C 72.5 °F /  22.5 °C 29.9in /  1012.5hPa South 3.4mph /  5.4km/h 10.1mph /  16.3km/h 78.7% 0in /  0.0mm 501 W/m2
11:34 79.7 °F /  26.5 °C 72.5 °F /  22.5 °C 29.9in /  1012.5hPa South 2.9mph /  4.6km/h 10.1mph /  16.3km/h 78.8% 0in /  0.0mm 502 W/m2
11:39 80.4 °F /  26.9 °C 72.9 °F /  22.7 °C 29.9in /  1012.5hPa South 3.4mph /  5.4km/h 7.6mph /  12.2km/h 77.7% 0in /  0.0mm 507 W/m2
11:44 80.4 °F /  26.9 °C 72.7 °F /  22.6 °C 29.9in /  1012.2hPa South 1.7mph /  2.8km/h 7.6mph /  12.2km/h 77.7% 0in /  0.0mm 511 W/m2
11:49 80.4 °F /  26.9 °C 72.9 °F /  22.7 °C 29.9in /  1012.2hPa SSE 2.3mph /  3.7km/h 7.6mph /  12.2km/h 77.8% 0in /  0.0mm 513 W/m2
11:54 80.4 °F /  26.9 °C 72.5 °F /  22.5 °C 29.9in /  1012.2hPa SSE 2.1mph /  3.4km/h 7.6mph /  12.2km/h 76.7% 0in /  0.0mm 516 W/m2
11:59 80.8 °F /  27.1 °C 73 °F /  22.8 °C 29.9in /  1012.2hPa SE 3.2mph /  5.1km/h 10.1mph /  16.3km/h 77.1% 0in /  0.0mm 516 W/m2
12:04 80.8 °F /  27.1 °C 73 °F /  22.8 °C 29.9in /  1012.2hPa SE 2.4mph /  3.8km/h 12.5mph /  20.1km/h 77.2% 0in /  0.0mm 519 W/m2
12:09 81 °F /  27.2 °C 72.7 °F /  22.6 °C 29.9in /  1011.9hPa ESE 1.4mph /  2.3km/h 7.6mph /  12.2km/h 76.2% 0in /  0.0mm 521 W/m2
12:14 81 °F /  27.2 °C 72.5 °F /  22.5 °C 29.9in /  1011.9hPa SSE 1.9mph /  3km/h 7.6mph /  12.2km/h 75.7% 0in /  0.0mm 523 W/m2
12:19 81.7 °F /  27.6 °C 73.4 °F /  23 °C 29.9in /  1011.9hPa SE 1.1mph /  1.8km/h 7.6mph /  12.2km/h 76% 0in /  0.0mm 526 W/m2
12:24 81.9 °F /  27.7 °C 73.6 °F /  23.1 °C 29.9in /  1011.9hPa SSE 1.4mph /  2.3km/h 10.1mph /  16.3km/h 76.1% 0in /  0.0mm 530 W/m2
12:29 81.9 °F /  27.7 °C 73.2 °F /  22.9 °C 29.9in /  1011.9hPa South 3.3mph /  5.3km/h 10.1mph /  16.3km/h 75.2% 0in /  0.0mm 530 W/m2
12:34 81.9 °F /  27.7 °C 73.2 °F /  22.9 °C 29.9in /  1011.9hPa SSE 1.6mph /  2.6km/h 7.6mph /  12.2km/h 75% 0in /  0.0mm 531 W/m2
12:39 82.9 °F /  28.3 °C 73.9 °F /  23.3 °C 29.9in /  1011.5hPa South 1.7mph /  2.7km/h 7.6mph /  12.2km/h 74.4% 0in /  0.0mm 536 W/m2
12:44 83.1 °F /  28.4 °C 74.1 °F /  23.4 °C 29.9in /  1011.5hPa SSE 2.4mph /  3.9km/h 10.1mph /  16.3km/h 74.7% 0in /  0.0mm 536 W/m2
12:49 82.9 °F /  28.3 °C 73.6 °F /  23.1 °C 29.9in /  1011.5hPa South 1.7mph /  2.7km/h 7.6mph /  12.2km/h 73.5% 0in /  0.0mm 535 W/m2
12:54 82.9 °F /  28.3 °C 73.9 °F /  23.3 °C 29.9in /  1011.5hPa South 2mph /  3.2km/h 7.6mph /  12.2km/h 74.3% 0in /  0.0mm 538 W/m2
12:59 82 °F /  27.8 °C 73 °F /  22.8 °C 29.9in /  1011.5hPa SSE 2.4mph /  3.9km/h 7.6mph /  12.2km/h 74.4% 0in /  0.0mm 537 W/m2
13:04 81.9 °F /  27.7 °C 72.5 °F /  22.5 °C 29.9in /  1011.5hPa SE 3.5mph /  5.7km/h 10.1mph /  16.3km/h 73.4% 0in /  0.0mm 535 W/m2
13:09 82 °F /  27.8 °C 72.7 °F /  22.6 °C 29.9in /  1011.5hPa SE 3.2mph /  5.1km/h 10.1mph /  16.3km/h 73.4% 0in /  0.0mm 535 W/m2
13:14 82.2 °F /  27.9 °C 72.7 °F /  22.6 °C 29.9in /  1011.2hPa SSE 2.7mph /  4.3km/h 10.1mph /  16.3km/h 72.8% 0in /  0.0mm 537 W/m2
13:19 83.1 °F /  28.4 °C 73.2 °F /  22.9 °C 29.9in /  1011.2hPa SE 1.1mph /  1.8km/h 10.1mph /  16.3km/h 71.9% 0in /  0.0mm 538 W/m2
13:24 83.3 °F /  28.5 °C 73.2 °F /  22.9 °C 29.9in /  1011.2hPa SSE 1.7mph /  2.7km/h 7.6mph /  12.2km/h 71.7% 0in /  0.0mm 539 W/m2
13:29 83.3 °F /  28.5 °C 72.9 °F /  22.7 °C 29.9in /  1010.8hPa SSE 2.1mph /  3.3km/h 7.6mph /  12.2km/h 70.9% 0in /  0.0mm 542 W/m2
13:34 83.5 °F /  28.6 °C 73 °F /  22.8 °C 29.9in /  1010.8hPa SSE 1.7mph /  2.7km/h 7.6mph /  12.2km/h 71.2% 0in /  0.0mm 541 W/m2
13:39 83.7 °F /  28.7 °C 73.2 °F /  22.9 °C 29.9in /  1010.8hPa SSE 2.9mph /  4.7km/h 7.6mph /  12.2km/h 70.8% 0in /  0.0mm 541 W/m2
13:44 83.8 °F /  28.8 °C 73 °F /  22.8 °C 29.9in /  1010.8hPa South 2.5mph /  4.1km/h 7.6mph /  12.2km/h 70.1% 0in /  0.0mm 539 W/m2
13:49 83.8 °F /  28.8 °C 72.9 °F /  22.7 °C 29.9in /  1010.8hPa SSE 0.4mph /  0.6km/h 7.6mph /  12.2km/h 69.6% 0in /  0.0mm 540 W/m2
13:54 84 °F /  28.9 °C 72.9 °F /  22.7 °C 29.9in /  1010.8hPa South 4.3mph /  7km/h 12.5mph /  20.1km/h 69.4% 0in /  0.0mm 539 W/m2
13:59 84.2 °F /  29 °C 73.2 °F /  22.9 °C 29.9in /  1010.8hPa South 3.5mph /  5.6km/h 10.1mph /  16.3km/h 69.7% 0in /  0.0mm 537 W/m2
14:04 84.4 °F /  29.1 °C 73 °F /  22.8 °C 29.9in /  1010.8hPa SE 1.7mph /  2.8km/h 10.1mph /  16.3km/h 68.8% 0in /  0.0mm 539 W/m2
14:09 84.6 °F /  29.2 °C 73 °F /  22.8 °C 29.8in /  1010.5hPa SSE 2.4mph /  3.8km/h 7.6mph /  12.2km/h 68.6% 0in /  0.0mm 544 W/m2
14:14 84.6 °F /  29.2 °C 72.9 °F /  22.7 °C 29.9in /  1010.8hPa South 1.1mph /  1.8km/h 7.6mph /  12.2km/h 68.1% 0in /  0.0mm 545 W/m2
14:19 84.9 °F /  29.4 °C 72.5 °F /  22.5 °C 29.8in /  1010.5hPa SSE 2.6mph /  4.2km/h 7.6mph /  12.2km/h 66.6% 0in /  0.0mm 542 W/m2
14:24 85.1 °F /  29.5 °C 72.5 °F /  22.5 °C 29.8in /  1010.5hPa South 3.7mph /  6km/h 10.1mph /  16.3km/h 66.2% 0in /  0.0mm 543 W/m2
14:29 85.1 °F /  29.5 °C 72.9 °F /  22.7 °C 29.8in /  1010.5hPa SSE 3.3mph /  5.3km/h 10.1mph /  16.3km/h 66.9% 0in /  0.0mm 542 W/m2
14:34 85.1 °F /  29.5 °C 72.9 °F /  22.7 °C 29.8in /  1010.5hPa South 3.2mph /  5.1km/h 10.1mph /  16.3km/h 67% 0in /  0.0mm 544 W/m2
14:44 85.3 °F /  29.6 °C 72.3 °F /  22.4 °C 29.8in /  1010.2hPa SSE 1mph /  1.6km/h 7.6mph /  12.2km/h 65.2% 0in /  0.0mm 546 W/m2
14:49 85.5 °F /  29.7 °C 72.7 °F /  22.6 °C 29.8in /  1010.2hPa South 2.5mph /  4km/h 10.1mph /  16.3km/h 65.6% 0in /  0.0mm 546 W/m2
14:54 85.5 °F /  29.7 °C 72.7 °F /  22.6 °C 29.8in /  1010.2hPa South 2.4mph /  3.8km/h 10.1mph /  16.3km/h 65.6% 0in /  0.0mm 544 W/m2
14:59 85.8 °F /  29.9 °C 72.9 °F /  22.7 °C 29.8in /  1010.2hPa South 3.2mph /  5.1km/h 10.1mph /  16.3km/h 65.6% 0in /  0.0mm 546 W/m2
15:04 86 °F /  30 °C 73.2 °F /  22.9 °C 29.8in /  1009.8hPa SSW 2.5mph /  4km/h 12.5mph /  20.1km/h 66.1% 0in /  0.0mm 545 W/m2
15:09 85.8 °F /  29.9 °C 73.2 °F /  22.9 °C 29.8in /  1009.8hPa SSW 4.8mph /  7.7km/h 12.5mph /  20.1km/h 65.9% 0in /  0.0mm 544 W/m2
15:14 85.8 °F /  29.9 °C 73 °F /  22.8 °C 29.8in /  1009.8hPa SSE 2.6mph /  4.2km/h 10.1mph /  16.3km/h 65.7% 0in /  0.0mm 540 W/m2
15:19 86 °F /  30 °C 72.9 °F /  22.7 °C 29.8in /  1009.8hPa SSW 3.7mph /  5.9km/h 12.5mph /  20.1km/h 65.1% 0in /  0.0mm 541 W/m2
15:24 86 °F /  30 °C 72.9 °F /  22.7 °C 29.8in /  1009.8hPa SSE 4.3mph /  7km/h 10.1mph /  16.3km/h 65.1% 0in /  0.0mm 539 W/m2
15:29 86 °F /  30 °C 73 °F /  22.8 °C 29.8in /  1009.5hPa South 5.3mph /  8.5km/h 12.5mph /  20.1km/h 65.2% 0in /  0.0mm 538 W/m2
15:34 86 °F /  30 °C 73.2 °F /  22.9 °C 29.8in /  1009.5hPa SSE 5.5mph /  8.8km/h 17.4mph /  28km/h 65.9% 0in /  0.0mm 535 W/m2
15:39 85.6 °F /  29.8 °C 72.5 °F /  22.5 °C 29.8in /  1009.5hPa SSE 2.9mph /  4.6km/h 7.6mph /  12.2km/h 65.1% 0in /  0.0mm 534 W/m2
15:44 85.5 °F /  29.7 °C 72.5 °F /  22.5 °C 29.8in /  1009.5hPa South 5mph /  8km/h 12.5mph /  20.1km/h 65.4% 0in /  0.0mm 533 W/m2
15:49 85.5 °F /  29.7 °C 72.5 °F /  22.5 °C 29.8in /  1009.5hPa South 4.7mph /  7.6km/h 12.5mph /  20.1km/h 65.2% 0in /  0.0mm 530 W/m2
15:54 85.5 °F /  29.7 °C 72.7 °F /  22.6 °C 29.8in /  1009.1hPa South 7.1mph /  11.4km/h 17.4mph /  28km/h 65.8% 0in /  0.0mm 528 W/m2
15:59 85.5 °F /  29.7 °C 72.9 °F /  22.7 °C 29.8in /  1009.5hPa South 4.5mph /  7.3km/h 12.5mph /  20.1km/h 66.1% 0in /  0.0mm 526 W/m2
16:04 85.5 °F /  29.7 °C 72.9 °F /  22.7 °C 29.8in /  1009.1hPa South 3.9mph /  6.3km/h 10.1mph /  16.3km/h 66.1% 0in /  0.0mm 522 W/m2
16:09 85.5 °F /  29.7 °C 73.8 °F /  23.2 °C 29.8in /  1009.1hPa South 6.8mph /  10.9km/h 15mph /  24.1km/h 68.3% 0in /  0.0mm 519 W/m2
16:14 85.5 °F /  29.7 °C 74.3 °F /  23.5 °C 29.8in /  1009.1hPa South 6.8mph /  10.9km/h 17.4mph /  28km/h 69.7% 0in /  0.0mm 510 W/m2
16:19 85.3 °F /  29.6 °C 74.1 °F /  23.4 °C 29.8in /  1009.1hPa South 4.1mph /  6.6km/h 12.5mph /  20.1km/h 69.3% 0in /  0.0mm 511 W/m2
16:24 85.3 °F /  29.6 °C 73.8 °F /  23.2 °C 29.8in /  1009.1hPa South 3.4mph /  5.5km/h 10.1mph /  16.3km/h 68.8% 0in /  0.0mm 509 W/m2
16:29 85.5 °F /  29.7 °C 74.3 °F /  23.5 °C 29.8in /  1009.1hPa South 5.7mph /  9.1km/h 12.5mph /  20.1km/h 69.3% 0in /  0.0mm 512 W/m2
16:34 85.3 °F /  29.6 °C 74.5 °F /  23.6 °C 29.8in /  1009.1hPa South 4.7mph /  7.6km/h 12.5mph /  20.1km/h 70.2% 0in /  0.0mm 506 W/m2
16:39 85.5 °F /  29.7 °C 74.3 °F /  23.5 °C 29.8in /  1009.1hPa South 3.6mph /  5.8km/h 12.5mph /  20.1km/h 69.1% 0in /  0.0mm 500 W/m2
16:44 85.6 °F /  29.8 °C 74.1 °F /  23.4 °C 29.8in /  1009.1hPa SSE 6.3mph /  10.1km/h 17.4mph /  28km/h 68.7% 0in /  0.0mm 495 W/m2
16:49 85.5 °F /  29.7 °C 73.9 °F /  23.3 °C 29.8in /  1009.1hPa SSE 5.8mph /  9.3km/h 17.4mph /  28km/h 68.3% 0in /  0.0mm 493 W/m2
16:54 85.5 °F /  29.7 °C 73.2 °F /  22.9 °C 29.8in /  1008.8hPa South 4.8mph /  7.7km/h 15mph /  24.1km/h 67.1% 0in /  0.0mm 485 W/m2
16:59 85.5 °F /  29.7 °C 73.2 °F /  22.9 °C 29.8in /  1008.8hPa South 4.2mph /  6.8km/h 10.1mph /  16.3km/h 67.2% 0in /  0.0mm 491 W/m2
17:04 85.5 °F /  29.7 °C 73.2 °F /  22.9 °C 29.8in /  1008.8hPa South 3.5mph /  5.6km/h 10.1mph /  16.3km/h 66.8% 0in /  0.0mm 489 W/m2
17:09 85.5 °F /  29.7 °C 72.5 °F /  22.5 °C 29.8in /  1008.8hPa SSE 5.9mph /  9.5km/h 12.5mph /  20.1km/h 65.3% 0in /  0.0mm 483 W/m2
17:14 85.5 °F /  29.7 °C 72.7 °F /  22.6 °C 29.8in /  1008.8hPa South 3.5mph /  5.6km/h 12.5mph /  20.1km/h 65.8% 0in /  0.0mm 482 W/m2
17:19 85.3 °F /  29.6 °C 72.5 °F /  22.5 °C 29.8in /  1008.8hPa South 4mph /  6.5km/h 12.5mph /  20.1km/h 65.6% 0in /  0.0mm 478 W/m2
17:24 85.5 °F /  29.7 °C 72 °F /  22.2 °C 29.8in /  1008.8hPa South 4.3mph /  6.9km/h 12.5mph /  20.1km/h 64.2% 0in /  0.0mm 480 W/m2
17:29 85.5 °F /  29.7 °C 71.4 °F /  21.9 °C 29.8in /  1008.5hPa South 6.6mph /  10.6km/h 12.5mph /  20.1km/h 63.1% 0in /  0.0mm 469 W/m2
17:34 85.5 °F /  29.7 °C 71.2 °F /  21.8 °C 29.8in /  1008.5hPa South 2.2mph /  3.5km/h 10.1mph /  16.3km/h 62.8% 0in /  0.0mm 461 W/m2
17:39 85.3 °F /  29.6 °C 71.2 °F /  21.8 °C 29.8in /  1008.5hPa South 4.9mph /  7.9km/h 12.5mph /  20.1km/h 62.9% 0in /  0.0mm 459 W/m2
17:44 84.9 °F /  29.4 °C 70.9 °F /  21.6 °C 29.8in /  1008.5hPa South 3.9mph /  6.2km/h 12.5mph /  20.1km/h 63% 0in /  0.0mm 456 W/m2
17:49 84.9 °F /  29.4 °C 70.9 °F /  21.6 °C 29.8in /  1008.5hPa South 5.8mph /  9.4km/h 12.5mph /  20.1km/h 63% 0in /  0.0mm 445 W/m2
17:54 84.7 °F /  29.3 °C 70.7 °F /  21.5 °C 29.8in /  1008.1hPa South 5.3mph /  8.6km/h 12.5mph /  20.1km/h 62.6% 0in /  0.0mm 438 W/m2
17:59 84.7 °F /  29.3 °C 70.3 °F /  21.3 °C 29.8in /  1008.5hPa South 4mph /  6.5km/h 10.1mph /  16.3km/h 62% 0in /  0.0mm 433 W/m2
18:04 84.4 °F /  29.1 °C 70 °F /  21.1 °C 29.8in /  1008.1hPa South 4.1mph /  6.6km/h 10.1mph /  16.3km/h 62% 0in /  0.0mm 429 W/m2
18:09 84.4 °F /  29.1 °C 70 °F /  21.1 °C 29.8in /  1008.1hPa South 3.9mph /  6.3km/h 12.5mph /  20.1km/h 62.1% 0in /  0.0mm 424 W/m2
18:14 84.4 °F /  29.1 °C 70 °F /  21.1 °C 29.8in /  1008.1hPa South 5.3mph /  8.5km/h 12.5mph /  20.1km/h 62.1% 0in /  0.0mm 414 W/m2
18:19 84.2 °F /  29 °C 69.8 °F /  21 °C 29.8in /  1008.1hPa South 3.9mph /  6.2km/h 12.5mph /  20.1km/h 62% 0in /  0.0mm 405 W/m2
18:24 83.8 °F /  28.8 °C 70 °F /  21.1 °C 29.8in /  1008.5hPa South 3.4mph /  5.5km/h 10.1mph /  16.3km/h 63.1% 0in /  0.0mm 402 W/m2
18:29 83.8 °F /  28.8 °C 70.3 °F /  21.3 °C 29.8in /  1008.1hPa South 5.3mph /  8.5km/h 12.5mph /  20.1km/h 64.3% 0in /  0.0mm 397 W/m2
18:34 83.7 °F /  28.7 °C 71.1 °F /  21.7 °C 29.8in /  1008.1hPa SSE 5.2mph /  8.4km/h 10.1mph /  16.3km/h 66.1% 0in /  0.0mm 95 W/m2
18:39 83.1 °F /  28.4 °C 71.4 °F /  21.9 °C 29.8in /  1008.1hPa South 3.9mph /  6.2km/h 12.5mph /  20.1km/h 67.9% 0in /  0.0mm 66 W/m2
18:44 81.3 °F /  27.4 °C 70.3 °F /  21.3 °C 29.8in /  1008.1hPa South 4.5mph /  7.3km/h 12.5mph /  20.1km/h 69.6% 0in /  0.0mm 62 W/m2
18:49 81.3 °F /  27.4 °C 70.5 °F /  21.4 °C 29.8in /  1008.1hPa South 5.7mph /  9.2km/h 12.5mph /  20.1km/h 70.1% 0in /  0.0mm 59 W/m2
18:54 81.1 °F /  27.3 °C 70.3 °F /  21.3 °C 29.8in /  1008.1hPa SSE 6.2mph /  10km/h 15mph /  24.1km/h 70.1% 0in /  0.0mm 58 W/m2
18:59 81 °F /  27.2 °C 70.5 °F /  21.4 °C 29.8in /  1008.1hPa SSE 4mph /  6.5km/h 12.5mph /  20.1km/h 70.8% 0in /  0.0mm 56 W/m2
19:04 80.1 °F /  26.7 °C 69.8 °F /  21 °C 29.8in /  1008.1hPa South 5.4mph /  8.7km/h 10.1mph /  16.3km/h 71.4% 0in /  0.0mm 55 W/m2
19:09 79.9 °F /  26.6 °C 70 °F /  21.1 °C 29.8in /  1008.1hPa South 4.2mph /  6.7km/h 12.5mph /  20.1km/h 72% 0in /  0.0mm 54 W/m2
19:14 79.9 °F /  26.6 °C 70 °F /  21.1 °C 29.8in /  1008.1hPa South 4.7mph /  7.6km/h 10.1mph /  16.3km/h 72% 0in /  0.0mm 53 W/m2
19:19 79.7 °F /  26.5 °C 69.8 °F /  21 °C 29.8in /  1008.1hPa South 4.6mph /  7.4km/h 10.1mph /  16.3km/h 72% 0in /  0.0mm 51 W/m2
19:24 79.2 °F /  26.2 °C 69.8 °F /  21 °C 29.8in /  1008.5hPa South 4mph /  6.5km/h 10.1mph /  16.3km/h 72.9% 0in /  0.0mm 50 W/m2
19:29 79.2 °F /  26.2 °C 69.8 °F /  21 °C 29.8in /  1008.5hPa SSE 2.9mph /  4.7km/h 7.6mph /  12.2km/h 73% 0in /  0.0mm 49 W/m2
19:34 79.2 °F /  26.2 °C 69.8 °F /  21 °C 29.8in /  1008.5hPa South 3.4mph /  5.5km/h 10.1mph /  16.3km/h 73.2% 0in /  0.0mm 48 W/m2
19:39 79 °F /  26.1 °C 70 °F /  21.1 °C 29.8in /  1008.5hPa South 2.1mph /  3.4km/h 10.1mph /  16.3km/h 74.1% 0in /  0.0mm 46 W/m2
19:44 78.3 °F /  25.7 °C 69.8 °F /  21 °C 29.8in /  1008.5hPa South 2.6mph /  4.2km/h 7.6mph /  12.2km/h 75.4% 0in /  0.0mm 44 W/m2
19:49 78.3 °F /  25.7 °C 70.5 °F /  21.4 °C 29.8in /  1008.5hPa SSE 1.9mph /  3.1km/h 7.6mph /  12.2km/h 76.9% 0in /  0.0mm 43 W/m2
19:54 78.3 °F /  25.7 °C 70.9 °F /  21.6 °C 29.8in /  1008.5hPa South 3mph /  4.9km/h 10.1mph /  16.3km/h 77.9% 0in /  0.0mm 42 W/m2
19:59 78.1 °F /  25.6 °C 71.1 °F /  21.7 °C 29.8in /  1008.5hPa South 4.4mph /  7.1km/h 10.1mph /  16.3km/h 79% 0in /  0.0mm 39 W/m2
20:04 77.2 °F /  25.1 °C 70.3 °F /  21.3 °C 29.8in /  1008.5hPa South 0.8mph /  1.3km/h 10.1mph /  16.3km/h 79.6% 0in /  0.0mm 34 W/m2
20:09 77.2 °F /  25.1 °C 70.9 °F /  21.6 °C 29.8in /  1008.5hPa Calm   2.5mph /  4km/h 80.8% 0in /  0.0mm 30 W/m2
20:14 77 °F /  25 °C 70.7 °F /  21.5 °C 29.8in /  1008.5hPa Calm   2.5mph /  4km/h 81% 0in /  0.0mm 28 W/m2
20:19 76.8 °F /  24.9 °C 70.9 °F /  21.6 °C 29.8in /  1008.5hPa Calm   2.5mph /  4km/h 82% 0in /  0.0mm 28 W/m2
20:24 75.6 °F /  24.2 °C 69.8 °F /  21 °C 29.8in /  1008.5hPa Calm     82.3% 0in /  0.0mm 25 W/m2
20:29 75.6 °F /  24.2 °C 70 °F /  21.1 °C 29.8in /  1008.5hPa Calm     83.2% 0in /  0.0mm 23 W/m2
20:34 75.6 °F /  24.2 °C 70 °F /  21.1 °C 29.8in /  1008.5hPa Calm     83.2% 0in /  0.0mm 21 W/m2
20:39 75.4 °F /  24.1 °C 69.8 °F /  21 °C 29.8in /  1008.5hPa Calm     83% 0in /  0.0mm 14 W/m2
20:44 75 °F /  23.9 °C 69.3 °F /  20.7 °C 29.8in /  1008.5hPa Calm     82.4% 0in /  0.0mm 11 W/m2
20:49 75 °F /  23.9 °C 69.3 °F /  20.7 °C 29.8in /  1008.5hPa Calm     82.4% 0in /  0.0mm 9 W/m2
20:54 74.8 °F /  23.8 °C 69.8 °F /  21 °C 29.8in /  1008.5hPa Calm     84.3% 0in /  0.0mm 6 W/m2
20:59 74.8 °F /  23.8 °C 70 °F /  21.1 °C 29.8in /  1008.5hPa Calm     85.1% 0in /  0.0mm 4 W/m2
21:04 74.1 °F /  23.4 °C 69.3 °F /  20.7 °C 29.8in /  1008.5hPa Calm     85% 0in /  0.0mm 2 W/m2
21:09 74.1 °F /  23.4 °C 69.4 °F /  20.8 °C 29.8in /  1008.5hPa Calm     85.7% 0in /  0.0mm 0 W/m2
21:14 74.1 °F /  23.4 °C 69.6 °F /  20.9 °C 29.8in /  1008.5hPa Calm     86.1% 0in /  0.0mm 0 W/m2
21:19 74.1 °F /  23.4 °C 70 °F /  21.1 °C 29.8in /  1008.5hPa Calm     87% 0in /  0.0mm 0 W/m2
21:24 73.6 °F /  23.1 °C 69.6 °F /  20.9 °C 29.8in /  1008.8hPa Calm     87.2% 0in /  0.0mm 0 W/m2
21:29 73.4 °F /  23 °C 69.4 °F /  20.8 °C 29.8in /  1008.5hPa Calm     87.3% 0in /  0.0mm 0 W/m2
21:34 73.4 °F /  23 °C 69.1 °F /  20.6 °C 29.8in /  1008.5hPa Calm     86.6% 0in /  0.0mm 0 W/m2
21:39 73.2 °F /  22.9 °C 69.1 °F /  20.6 °C 29.8in /  1008.8hPa Calm     87.2% 0in /  0.0mm 0 W/m2
21:44 72.5 °F /  22.5 °C 68.7 °F /  20.4 °C 29.8in /  1008.8hPa Calm     88% 0in /  0.0mm 0 W/m2
21:49 72.5 °F /  22.5 °C 68.7 °F /  20.4 °C 29.8in /  1009.1hPa Calm     88% 0in /  0.0mm 0 W/m2
21:54 72.5 °F /  22.5 °C 69.1 °F /  20.6 °C 29.8in /  1009.1hPa Calm   2.5mph /  4km/h 89% 0in /  0.0mm 0 W/m2
21:59 72.5 °F /  22.5 °C 69.3 °F /  20.7 °C 29.8in /  1009.1hPa Calm     89.8% 0in /  0.0mm 0 W/m2
22:04 71.8 °F /  22.1 °C 68.7 °F /  20.4 °C 29.8in /  1009.1hPa Calm     89.9% 0in /  0.0mm 0 W/m2
22:09 71.6 °F /  22 °C 68.5 °F /  20.3 °C 29.8in /  1009.1hPa Calm     90% 0in /  0.0mm 0 W/m2
22:14 71.6 °F /  22 °C 68.7 °F /  20.4 °C 29.8in /  1009.5hPa Calm     90.3% 0in /  0.0mm 0 W/m2
22:19 71.6 °F /  22 °C 68.9 °F /  20.5 °C 29.8in /  1009.5hPa Calm     91% 0in /  0.0mm 0 W/m2
22:24 71.1 °F /  21.7 °C 68.5 °F /  20.3 °C 29.8in /  1009.5hPa Calm     91.4% 0in /  0.0mm 0 W/m2
22:29 70.9 °F /  21.6 °C 68.4 °F /  20.2 °C 29.8in /  1009.5hPa Calm     92% 0in /  0.0mm 0 W/m2
22:34 70.9 °F /  21.6 °C 68.5 °F /  20.3 °C 29.8in /  1009.8hPa Calm     92.7% 0in /  0.0mm 0 W/m2
22:39 70.9 °F /  21.6 °C 68.7 °F /  20.4 °C 29.8in /  1009.8hPa Calm     93% 0in /  0.0mm 0 W/m2
22:44 70.5 °F /  21.4 °C 68.4 °F /  20.2 °C 29.8in /  1009.8hPa Calm     92.8% 0in /  0.0mm 0 W/m2
22:49 70.5 °F /  21.4 °C 68.4 °F /  20.2 °C 29.8in /  1009.8hPa Calm     93% 0in /  0.0mm 0 W/m2
22:54 70.5 °F /  21.4 °C 68.5 °F /  20.3 °C 29.8in /  1009.8hPa Calm     93.3% 0in /  0.0mm 0 W/m2
22:59 70.3 °F /  21.3 °C 67.8 °F /  19.9 °C 29.8in /  1009.8hPa Calm     92% 0in /  0.0mm 0 W/m2
23:04 70.7 °F /  21.5 °C 67.3 °F /  19.6 °C 29.8in /  1009.8hPa Calm     88.9% 0in /  0.0mm 0 W/m2
23:09 70.9 °F /  21.6 °C 66.7 °F /  19.3 °C 29.8in /  1009.8hPa South 0.2mph /  0.4km/h 4.9mph /  7.9km/h 86.9% 0in /  0.0mm 0 W/m2
23:14 70.9 °F /  21.6 °C 66.2 °F /  19 °C 29.8in /  1009.8hPa South 0.2mph /  0.4km/h 4.9mph /  7.9km/h 85.1% 0in /  0.0mm 0 W/m2
23:19 70.9 °F /  21.6 °C 65.5 °F /  18.6 °C 29.8in /  1009.8hPa South 3mph /  4.9km/h 10.1mph /  16.3km/h 82.8% 0in /  0.0mm 0 W/m2
23:24 71.6 °F /  22 °C 66 °F /  18.9 °C 29.8in /  1010.2hPa South 1.6mph /  2.6km/h 7.6mph /  12.2km/h 82.4% 0in /  0.0mm 0 W/m2
23:29 71.8 °F /  22.1 °C 66 °F /  18.9 °C 29.8in /  1009.8hPa SSW 1.2mph /  1.9km/h 10.1mph /  16.3km/h 82.1% 0in /  0.0mm 0 W/m2
23:34 71.8 °F /  22.1 °C 66.2 °F /  19 °C 29.8in /  1009.8hPa South 0.4mph /  0.6km/h 7.6mph /  12.2km/h 82.3% 0in /  0.0mm 0 W/m2
23:39 71.8 °F /  22.1 °C 66.6 °F /  19.2 °C 29.8in /  1009.8hPa Calm     83.8% 0in /  0.0mm 0 W/m2
23:44 71.4 °F /  21.9 °C 66.4 °F /  19.1 °C 29.8in /  1009.8hPa Calm   4.9mph /  7.9km/h 84% 0in /  0.0mm 0 W/m2
23:49 71.2 °F /  21.8 °C 65.8 °F /  18.8 °C 29.8in /  1010.2hPa SW 0.1mph /  0.1km/h 2.5mph /  4km/h 83.2% 0in /  0.0mm 0 W/m2
23:54 71.2 °F /  21.8 °C 65.8 °F /  18.8 °C 29.8in /  1010.2hPa Calm     83% 0in /  0.0mm 0 W/m2
23:59 71.2 °F /  21.8 °C 65.8 °F /  18.8 °C 29.8in /  1010.2hPa Calm     83% 0in /  0.0mm 0 W/m2
Juneau County Weather
Compliments of Weather Underground - 2 mb